Time;durP1;ratioP1;P1;durP2;ratioP2;P2;SDS_P1;SDS_P2;PMS_P1;PMS_P2;Temp;Humidity;BMP_temperature;BMP_pressure;BME280_temperature;BME280_humidity;BME280_pressure;Samples;Min_cycle;Max_cycle;Signal;HPM_P1;HPM_P2
2023/03/26 00:02:43;;;;;;;4.90;3.10;;;;;;;8.23;76.64;98924.24;130931;1253;107278;-74
2023/03/26 00:05:49;;;;;;;5.00;3.20;;;;;;;8.29;76.69;98925.20;130965;1263;108050;-74
2023/03/26 00:08:55;;;;;;;4.10;3.00;;;;;;;8.34;76.69;98926.08;131109;1251;107383;-74
2023/03/26 00:12:01;;;;;;;5.70;3.40;;;;;;;8.38;76.65;98927.39;131150;1254;107385;-72
2023/03/26 00:15:09;;;;;;;5.80;3.60;;;;;;;8.40;76.55;98921.30;131117;1254;107540;-75
2023/03/26 00:18:14;;;;;;;5.20;3.10;;;;;;;8.41;76.60;98924.77;130986;1251;107600;-73
2023/03/26 00:21:26;;;;;;;5.60;3.80;;;;;;;8.42;76.67;98918.64;131114;1254;107469;-74
2023/03/26 00:24:32;;;;;;;5.30;3.50;;;;;;;8.41;76.77;98920.88;131034;1254;108586;-74
2023/03/26 00:27:38;;;;;;;5.50;3.00;;;;;;;8.39;76.73;98917.39;131132;1254;107471;-73
2023/03/26 00:30:43;;;;;;;4.60;2.90;;;;;;;8.37;76.82;98912.08;131213;1254;107356;-74
2023/03/26 00:33:54;;;;;;;6.00;3.60;;;;;;;8.41;76.86;98912.19;130940;1254;107470;-74
2023/03/26 00:37:02;;;;;;;5.30;3.20;;;;;;;8.46;76.72;98912.85;131124;1253;107804;-74
2023/03/26 00:40:10;;;;;;;7.20;3.80;;;;;;;8.50;76.86;98904.65;131149;1254;107452;-74
2023/03/26 00:43:18;;;;;;;5.80;3.70;;;;;;;8.53;76.86;98901.11;131037;1254;107576;-75
2023/03/26 00:46:25;;;;;;;5.30;3.30;;;;;;;8.55;76.80;98895.59;131069;1254;107477;-73
2023/03/26 00:49:31;;;;;;;5.80;3.50;;;;;;;8.54;76.93;98901.14;131059;1262;107554;-73
2023/03/26 00:52:37;;;;;;;6.20;3.30;;;;;;;8.53;76.91;98899.29;131210;1254;107502;-73
2023/03/26 00:55:44;;;;;;;5.60;3.60;;;;;;;8.53;76.94;98899.20;131101;1254;107457;-74
2023/03/26 00:58:50;;;;;;;5.20;3.30;;;;;;;8.50;77.00;98893.45;131218;1254;108679;-74
2023/03/26 01:01:57;;;;;;;7.20;3.60;;;;;;;8.50;77.20;98889.57;131184;1263;107290;-74
2023/03/26 01:05:17;;;;;;;6.00;3.30;;;;;;;8.52;77.23;98892.19;131083;1263;107487;-74
2023/03/26 01:08:27;;;;;;;5.90;3.30;;;;;;;8.55;77.27;98888.08;131157;1253;107453;-74
2023/03/26 01:11:35;;;;;;;5.70;3.40;;;;;;;8.58;77.36;98888.10;131178;1250;106508;-75
2023/03/26 01:14:41;;;;;;;5.60;3.50;;;;;;;8.60;77.45;98884.38;131101;1251;108884;-73
2023/03/26 01:17:50;;;;;;;7.30;3.80;;;;;;;8.60;77.65;98881.15;131147;1251;107530;-74
2023/03/26 01:21:03;;;;;;;9.30;4.30;;;;;;;8.60;77.64;98875.67;131198;1262;107541;-73
2023/03/26 01:24:10;;;;;;;5.50;3.40;;;;;;;8.59;77.54;98876.86;131107;1254;108317;-74
2023/03/26 01:27:24;;;;;;;7.80;3.50;;;;;;;8.57;77.58;98869.42;131200;1263;107509;-74
2023/03/26 01:30:40;;;;;;;6.30;3.40;;;;;;;8.55;77.55;98863.33;131176;1250;107435;-74
2023/03/26 01:33:52;;;;;;;6.90;4.00;;;;;;;8.58;77.85;98866.66;131146;1253;107404;-75
2023/03/26 01:37:08;;;;;;;8.30;4.80;;;;;;;8.62;77.76;98863.88;131206;1253;107507;-74
2023/03/26 01:40:24;;;;;;;9.60;4.80;;;;;;;8.68;77.72;98860.11;131179;1251;107520;-75
2023/03/26 01:43:37;;;;;;;6.80;3.90;;;;;;;8.70;77.79;98858.09;131444;1250;107489;-72
2023/03/26 01:46:41;;;;;;;;;;;;;;;8.71;77.81;98856.38;131360;1254;108554;-75
2023/03/26 01:49:48;;;;;;;6.10;3.90;;;;;;;8.68;77.70;98852.66;131203;1248;107616;-72
2023/03/26 01:52:54;;;;;;;5.80;4.00;;;;;;;8.62;77.79;98852.09;131375;1252;107529;-74
2023/03/26 01:56:11;;;;;;;7.90;4.30;;;;;;;8.57;77.70;98853.02;130991;1251;107520;-74
2023/03/26 01:59:30;;;;;;;5.60;3.40;;;;;;;8.52;77.81;98850.20;131125;1254;107529;-75
2023/03/26 02:02:42;;;;;;;5.00;3.00;;;;;;;8.44;77.91;98847.60;131006;1257;107537;-74
2023/03/26 02:05:55;;;;;;;7.30;3.70;;;;;;;8.43;77.91;98839.14;131044;1253;107561;-75
2023/03/26 02:09:05;;;;;;;7.20;4.20;;;;;;;8.48;78.03;98835.98;131028;1253;107513;-75
2023/03/26 02:12:13;;;;;;;7.00;3.90;;;;;;;8.51;77.95;98829.05;131211;1251;107584;-75
2023/03/26 02:15:18;;;;;;;7.30;4.20;;;;;;;8.54;77.87;98829.44;131143;1254;232880;-75
2023/03/26 02:18:24;;;;;;;5.90;3.80;;;;;;;8.53;77.85;98831.13;131138;1251;107554;-73
2023/03/26 02:21:32;;;;;;;5.50;3.90;;;;;;;8.53;77.85;98829.91;131165;1253;108049;-74
2023/03/26 02:24:38;;;;;;;7.40;4.60;;;;;;;8.51;77.73;98824.97;130970;1251;106548;-73
2023/03/26 02:27:45;;;;;;;8.40;3.80;;;;;;;8.45;77.71;98824.80;131181;1251;107279;-73
2023/03/26 02:30:51;;;;;;;6.60;4.10;;;;;;;8.37;77.76;98823.71;131176;1253;107468;-73
2023/03/26 02:33:57;;;;;;;6.00;3.60;;;;;;;8.29;77.81;98824.65;131230;1250;107558;-74
2023/03/26 02:37:03;;;;;;;6.80;4.00;;;;;;;8.22;77.71;98820.52;131155;1253;107527;-74
2023/03/26 02:40:11;;;;;;;6.10;3.80;;;;;;;8.20;77.70;98817.75;131144;1254;106272;-73
2023/03/26 02:43:17;;;;;;;6.50;3.90;;;;;;;8.20;77.79;98820.89;131206;1256;107541;-74
2023/03/26 02:46:23;;;;;;;7.00;4.10;;;;;;;8.19;77.78;98818.23;130953;1250;107537;-74
2023/03/26 02:50:08;;;;;;;6.80;4.40;;;;;;;8.11;77.44;98821.52;130427;1257;107510;-74
2023/03/26 02:53:28;;;;;;;7.10;4.10;;;;;;;8.01;77.40;98822.00;130299;1258;107529;-73
2023/03/26 02:56:36;;;;;;;6.00;3.80;;;;;;;7.93;77.49;98820.88;131155;1251;107545;-74
2023/03/26 02:59:58;;;;;;;7.60;4.10;;;;;;;7.84;77.59;98823.92;131003;1254;107548;-74
2023/03/26 03:03:26;;;;;;;5.30;3.10;;;;;;;7.77;77.69;98826.86;130936;1254;108048;-75
2023/03/26 03:06:56;;;;;;;7.10;3.80;;;;;;;7.73;77.68;98825.52;131103;1250;109178;-74
2023/03/26 03:10:02;;;;;;;7.40;4.00;;;;;;;7.75;77.77;98818.71;131244;1254;107476;-74
2023/03/26 03:13:45;;;;;;;8.70;4.20;;;;;;;7.83;77.68;98820.61;130896;1254;107471;-74
2023/03/26 03:16:52;;;;;;;6.40;3.80;;;;;;;7.91;77.53;98818.75;130945;1255;109093;-73
2023/03/26 03:20:00;;;;;;;5.80;3.70;;;;;;;7.94;77.43;98819.80;131102;1255;108636;-75
2023/03/26 03:23:06;;;;;;;8.30;4.40;;;;;;;7.96;77.49;98822.77;130906;1258;107462;-75
2023/03/26 03:26:16;;;;;;;6.70;4.00;;;;;;;7.98;77.39;98824.14;131128;1255;107543;-74
2023/03/26 03:29:27;;;;;;;7.30;4.40;;;;;;;7.99;77.26;98822.29;131122;1250;107540;-74
2023/03/26 03:32:33;;;;;;;7.30;4.10;;;;;;;7.98;77.25;98822.95;131085;1256;107606;-74
2023/03/26 03:35:41;;;;;;;5.70;3.70;;;;;;;7.96;77.38;98821.23;131182;1254;107638;-74
2023/03/26 03:38:47;;;;;;;4.90;3.20;;;;;;;7.94;77.30;98820.15;131151;1254;107234;-74
2023/03/26 03:41:55;;;;;;;5.60;3.00;;;;;;;7.94;77.37;98817.76;130956;1251;107473;-74
2023/03/26 03:45:01;;;;;;;7.30;3.40;;;;;;;7.96;77.26;98817.61;131115;1254;107401;-75
2023/03/26 03:48:29;;;;;;;5.40;3.50;;;;;;;8.03;77.31;98819.23;131067;1254;107436;-75
2023/03/26 03:51:35;;;;;;;5.60;3.40;;;;;;;8.08;77.28;98820.52;131179;1263;107533;-75
2023/03/26 03:54:43;;;;;;;7.40;4.10;;;;;;;8.13;77.05;98821.97;130950;1255;107519;-74
2023/03/26 03:57:57;;;;;;;6.90;3.80;;;;;;;8.14;77.02;98820.52;131262;1254;107476;-74
2023/03/26 04:01:03;;;;;;;5.30;3.60;;;;;;;8.15;77.01;98819.39;131105;1254;107559;-75
2023/03/26 04:04:33;;;;;;;8.20;4.40;;;;;;;8.14;77.01;98817.61;131218;1250;108704;-75
2023/03/26 04:07:41;;;;;;;7.90;4.80;;;;;;;8.13;77.06;98820.20;131210;1255;107425;-74
2023/03/26 04:11:07;;;;;;;8.20;4.80;;;;;;;8.09;76.97;98820.63;131274;1254;107359;-75
2023/03/26 04:14:32;;;;;;;6.60;3.80;;;;;;;8.06;77.16;98823.11;131075;1254;107534;-75
2023/03/26 04:17:46;;;;;;;6.50;3.20;;;;;;;8.05;77.07;98816.41;131207;1254;106536;-75
2023/03/26 04:20:54;;;;;;;9.90;4.30;;;;;;;8.07;77.08;98809.87;131198;1254;107390;-74
2023/03/26 04:24:06;;;;;;;7.00;3.80;;;;;;;8.11;77.10;98811.84;131192;1254;108587;-74
2023/03/26 04:27:35;;;;;;;6.50;3.90;;;;;;;8.17;76.97;98812.58;130914;1254;107805;-74
2023/03/26 04:30:53;;;;;;;6.30;3.70;;;;;;;8.21;76.82;98807.35;130939;1254;107478;-74
2023/03/26 04:34:14;;;;;;;7.40;3.90;;;;;;;8.24;76.82;98802.05;131122;1254;108653;-75
2023/03/26 04:37:38;;;;;;;6.20;3.80;;;;;;;8.26;76.77;98801.75;131029;1252;107971;-75
2023/03/26 04:40:52;;;;;;;7.70;4.10;;;;;;;8.23;76.76;98797.93;131114;1265;107513;-73
2023/03/26 04:44:22;;;;;;;6.20;4.10;;;;;;;8.24;76.73;98795.05;130997;1249;108711;-73
2023/03/26 04:47:37;;;;;;;6.40;4.00;;;;;;;8.22;76.73;98795.73;131047;1250;107539;-73
2023/03/26 04:50:45;;;;;;;8.20;4.60;;;;;;;8.22;76.66;98800.73;131120;1254;107905;-77
2023/03/26 04:53:54;;;;;;;7.60;3.70;;;;;;;8.21;76.84;98799.73;130986;1255;108009;-74
2023/03/26 04:57:13;;;;;;;7.10;3.40;;;;;;;8.26;76.78;98798.36;131208;1249;108704;-73
2023/03/26 05:00:24;;;;;;;5.60;3.40;;;;;;;8.35;76.75;98802.30;131168;1256;107812;-75
2023/03/26 05:03:33;;;;;;;5.50;3.30;;;;;;;8.45;76.67;98810.05;131121;1251;107875;-74
2023/03/26 05:06:44;;;;;;;4.30;3.30;;;;;;;8.48;76.92;98813.64;131190;1254;107462;-74
2023/03/26 05:10:14;;;;;;;12.90;8.50;;;;;;;8.40;77.22;98809.65;131374;1249;107505;-74
2023/03/26 05:13:30;;;;;;;9.30;6.30;;;;;;;8.38;77.43;98811.55;131632;1253;107562;-74
2023/03/26 05:16:40;;;;;;;110.10;51.80;;;;;;;8.35;77.68;98806.68;131386;1251;107465;-73
2023/03/26 05:19:47;;;;;;;172.50;74.40;;;;;;;8.33;77.76;98809.81;131110;1250;108621;-72
2023/03/26 05:22:53;;;;;;;204.90;87.20;;;;;;;8.31;77.89;98809.33;131459;1253;107510;-73
2023/03/26 05:26:06;;;;;;;26.70;15.20;;;;;;;8.30;77.93;98810.33;131165;1255;107505;-73
2023/03/26 05:29:13;;;;;;;23.90;11.90;;;;;;;8.30;78.07;98808.01;131194;1253;107514;-73
2023/03/26 05:32:23;;;;;;;33.90;19.80;;;;;;;8.32;78.28;98806.77;131253;1255;106552;-68
2023/03/26 05:35:30;;;;;;;38.20;20.10;;;;;;;8.33;78.35;98806.95;130797;1254;108127;-70
2023/03/26 05:38:36;;;;;;;58.90;34.40;;;;;;;8.31;78.26;98797.66;130829;1254;108489;-70
2023/03/26 05:41:43;;;;;;;20.20;12.90;;;;;;;8.31;78.43;98800.30;130892;1254;107524;-69
2023/03/26 05:44:49;;;;;;;12.20;7.10;;;;;;;8.30;78.49;98797.34;130974;1251;108150;-70
2023/03/26 05:48:00;;;;;;;104.90;37.30;;;;;;;8.29;78.83;98800.90;130814;1254;108069;-71
2023/03/26 05:51:07;;;;;;;28.10;11.20;;;;;;;8.27;78.83;98800.84;130955;1251;107455;-71
2023/03/26 05:54:12;;;;;;;15.80;7.20;;;;;;;8.33;78.97;98802.67;130910;1251;107394;-72
2023/03/26 05:57:38;;;;;;;89.30;36.10;;;;;;;8.47;79.04;98804.35;130914;1251;106695;-71
2023/03/26 06:01:04;;;;;;;21.30;9.50;;;;;;;8.55;78.94;98805.56;130932;1253;107463;-71
2023/03/26 06:04:20;;;;;;;30.50;13.30;;;;;;;8.62;78.94;98807.90;131124;1255;107414;-71
2023/03/26 06:07:40;;;;;;;13.70;6.30;;;;;;;8.69;78.82;98805.40;130989;1255;107467;-72
2023/03/26 06:11:00;;;;;;;17.50;8.10;;;;;;;8.72;78.79;98803.27;131100;1255;107465;-71
2023/03/26 06:14:08;;;;;;;10.30;7.10;;;;;;;8.75;78.73;98806.64;130945;1254;107474;-70
2023/03/26 06:17:16;;;;;;;6.20;3.70;;;;;;;8.77;78.68;98809.17;130936;1254;108034;-70
2023/03/26 06:20:42;;;;;;;4.30;2.70;;;;;;;8.89;79.02;98810.98;131076;1252;108115;-70
2023/03/26 06:23:58;;;;;;;5.60;2.90;;;;;;;9.07;79.30;98809.45;130899;1251;106525;-71
2023/03/26 06:27:18;;;;;;;;;;;;;;;9.23;79.00;98811.55;130818;1257;107526;-71
2023/03/26 06:30:51;;;;;;;8.30;4.50;;;;;;;9.41;78.80;98812.20;130922;1261;106738;-70
2023/03/26 06:34:14;;;;;;;7.40;3.40;;;;;;;9.56;78.43;98813.01;131106;1254;107535;-71
2023/03/26 06:37:20;;;;;;;5.00;3.00;;;;;;;9.69;78.61;98812.30;131156;1253;107452;-71
2023/03/26 06:40:27;;;;;;;56.60;40.20;;;;;;;9.77;78.14;98810.48;130997;1255;107722;-70
2023/03/26 06:43:52;;;;;;;10.50;6.60;;;;;;;9.88;78.45;98812.06;130986;1250;107808;-70
2023/03/26 06:47:16;;;;;;;7.10;4.40;;;;;;;9.93;78.13;98811.75;130853;1254;108217;-71
2023/03/26 06:50:45;;;;;;;171.00;64.20;;;;;;;10.00;77.87;98807.06;130746;1254;107637;-73
2023/03/26 06:54:10;;;;;;;24.60;10.80;;;;;;;10.12;77.85;98803.37;130933;1254;107300;-72
2023/03/26 06:57:41;;;;;;;7.10;4.10;;;;;;;10.29;77.42;98797.13;131208;1252;107531;-73
2023/03/26 07:00:56;;;;;;;4.80;2.90;;;;;;;10.39;77.37;98799.42;131080;1253;107611;-72
2023/03/26 07:04:20;;;;;;;5.40;3.20;;;;;;;10.42;76.67;98803.88;131125;1250;108451;-72
2023/03/26 07:07:44;;;;;;;6.50;3.60;;;;;;;10.48;76.40;98807.51;131351;1253;108669;-71
2023/03/26 07:11:09;;;;;;;9.40;4.40;;;;;;;10.56;76.22;98801.61;131520;1251;107223;-72
2023/03/26 07:14:53;;;;;;;128.30;52.90;;;;;;;10.64;76.36;98801.81;131345;1254;107706;-72
2023/03/26 07:18:25;;;;;;;47.70;21.20;;;;;;;10.72;75.75;98805.09;131180;1254;107477;-72
2023/03/26 07:21:32;;;;;;;9.50;4.90;;;;;;;10.73;75.85;98806.71;131186;1251;107546;-72
2023/03/26 07:24:39;;;;;;;35.40;19.50;;;;;;;10.81;75.76;98804.57;130713;1251;107430;-72
2023/03/26 07:28:20;;;;;;;21.70;14.80;;;;;;;10.92;75.23;98801.81;131033;1250;107507;-71
2023/03/26 07:32:04;;;;;;;17.80;9.10;;;;;;;11.02;74.87;98799.76;130662;1260;108487;-71
2023/03/26 07:35:48;;;;;;;93.70;42.60;;;;;;;10.95;74.41;98801.83;131054;1260;107605;-71
2023/03/26 07:39:22;;;;;;;;;;;;;;;10.90;74.53;98801.25;130989;1253;106434;-71
2023/03/26 07:43:03;;;;;;;59.40;29.40;;;;;;;10.96;74.82;98802.38;131371;1254;107889;-72
2023/03/26 07:46:36;;;;;;;6.10;4.40;;;;;;;11.01;74.13;98795.64;130906;1254;106572;-72
2023/03/26 07:50:16;;;;;;;84.40;37.50;;;;;;;10.94;73.62;98797.46;130707;1252;107519;-70
2023/03/26 07:53:54;;;;;;;13.30;7.40;;;;;;;10.90;73.87;98792.86;131104;1250;106578;-72
2023/03/26 07:57:33;;;;;;;7.20;4.40;;;;;;;10.92;73.61;98797.74;131621;1250;107423;-73
2023/03/26 08:01:09;;;;;;;39.00;16.30;;;;;;;10.98;73.78;98794.80;131345;1251;108081;-70
2023/03/26 08:04:30;;;;;;;132.20;49.70;;;;;;;11.04;73.22;98795.45;130764;1255;107450;-69
2023/03/26 08:08:15;;;;;;;56.20;27.00;;;;;;;11.06;72.51;98791.98;130891;1250;107836;-69
2023/03/26 08:11:40;;;;;;;15.70;10.90;;;;;;;10.98;72.67;98794.67;130896;1255;107776;-71
2023/03/26 08:14:55;;;;;;;10.70;8.00;;;;;;;11.01;72.46;98790.56;131288;1250;107569;-72
2023/03/26 08:18:14;;;;;;;3.50;2.90;;;;;;;11.11;72.18;98790.80;131460;1250;107276;-70
2023/03/26 08:21:28;;;;;;;18.70;14.00;;;;;;;11.24;72.09;98794.65;131152;1254;107405;-67
2023/03/26 08:24:39;;;;;;;11.90;8.80;;;;;;;11.41;71.81;98793.42;131043;1250;108195;-71
2023/03/26 08:27:53;;;;;;;6.60;3.70;;;;;;;11.47;70.72;98792.98;131288;1254;107421;-72
2023/03/26 08:31:01;;;;;;;6.90;4.80;;;;;;;11.52;69.94;98787.09;131283;1255;107386;-72
2023/03/26 08:34:09;;;;;;;10.70;6.80;;;;;;;11.53;68.84;98789.10;131289;1254;107228;-72
2023/03/26 08:37:15;;;;;;;10.00;6.50;;;;;;;11.48;69.28;98792.69;131284;1253;108498;-74
2023/03/26 08:40:36;;;;;;;7.10;5.50;;;;;;;11.44;69.55;98790.44;131221;1255;107630;-74
2023/03/26 08:48:02;;;;;;;5.40;3.20;;;;;;;11.37;69.90;98789.48;127192;1289;635815;-74
2023/03/26 08:51:39;;;;;;;16.50;6.30;;;;;;;11.18;69.73;98790.11;129625;1267;107642;-73
2023/03/26 08:55:05;;;;;;;17.00;6.60;;;;;;;11.12;69.65;98794.92;129656;1263;107494;-73
2023/03/26 08:58:45;;;;;;;22.30;10.10;;;;;;;11.04;69.99;98797.35;130247;1262;107479;-74
2023/03/26 09:02:21;;;;;;;23.20;10.00;;;;;;;10.97;70.35;98797.45;130111;1263;137944;-75
2023/03/26 09:05:45;;;;;;;12.50;6.80;;;;;;;11.06;69.86;98797.52;130327;1260;107494;-75
2023/03/26 09:09:42;;;;;;;10.50;5.60;;;;;;;11.09;69.58;98795.34;130316;1259;107576;-74
2023/03/26 09:13:09;;;;;;;26.80;15.40;;;;;;;11.03;69.09;98808.80;130434;1261;107238;-75
2023/03/26 09:16:45;;;;;;;35.10;13.30;;;;;;;11.01;69.49;98808.04;130561;1260;107573;-75
2023/03/26 09:20:18;;;;;;;44.20;17.00;;;;;;;11.12;69.21;98802.67;130450;1259;107415;-74
2023/03/26 09:23:48;;;;;;;25.20;10.90;;;;;;;11.19;69.38;98799.17;130232;1260;108614;-75
2023/03/26 09:27:07;;;;;;;11.70;7.40;;;;;;;11.36;69.02;98796.55;130234;1266;107239;-76
2023/03/26 09:30:49;;;;;;;9.40;6.20;;;;;;;11.34;68.78;98801.34;131103;1250;107571;-73
2023/03/26 09:34:04;;;;;;;10.40;7.90;;;;;;;11.46;68.15;98799.41;131079;1250;107474;-73
2023/03/26 09:37:32;;;;;;;6.80;4.70;;;;;;;11.50;67.63;98794.95;131283;1253;107384;-75
2023/03/26 09:40:45;;;;;;;5.30;3.90;;;;;;;11.67;68.39;98795.12;130918;1250;107412;-73
2023/03/26 09:44:33;;;;;;;3.20;2.40;;;;;;;11.84;68.24;98794.20;131049;1251;107449;-73
2023/03/26 09:47:56;;;;;;;4.10;2.30;;;;;;;11.85;66.33;98792.48;131087;1254;108578;-72
2023/03/26 09:51:06;;;;;;;;;;;;;;;12.05;67.16;98786.76;131120;1250;108255;-73
2023/03/26 09:54:45;;;;;;;1.80;1.60;;;;;;;12.13;64.80;98787.73;131015;1251;107415;-73
2023/03/26 09:58:07;;;;;;;3.70;2.10;;;;;;;11.99;65.00;98783.40;130953;1250;107683;-75
2023/03/26 10:01:19;;;;;;;2.80;2.10;;;;;;;12.03;66.04;98784.33;130888;1250;107422;-72
2023/03/26 10:04:52;;;;;;;2.30;1.70;;;;;;;12.22;66.26;98779.27;130966;1250;107353;-72
2023/03/26 10:08:20;;;;;;;2.30;1.70;;;;;;;12.48;65.45;98779.68;130904;1255;107243;-72
2023/03/26 10:11:37;;;;;;;2.30;1.20;;;;;;;12.56;64.73;98782.91;130948;1250;107460;-72
2023/03/26 10:14:52;;;;;;;1.90;1.50;;;;;;;12.64;63.77;98778.20;130985;1255;107514;-72
2023/03/26 10:18:09;;;;;;;4.60;1.90;;;;;;;12.66;63.89;98771.65;130950;1254;107427;-72
2023/03/26 10:21:28;;;;;;;1.70;1.40;;;;;;;12.65;62.34;98770.83;130964;1254;107714;-72
2023/03/26 10:24:50;;;;;;;1.80;1.30;;;;;;;12.59;62.29;98773.23;131117;1273;107562;-72
2023/03/26 10:28:07;;;;;;;1.60;1.20;;;;;;;12.59;61.87;98777.86;130919;1263;106349;-72
2023/03/26 10:31:42;;;;;;;1.60;1.40;;;;;;;12.69;62.35;98769.27;130913;1253;107540;-73
2023/03/26 10:35:03;;;;;;;2.80;1.20;;;;;;;12.80;61.00;98771.88;131139;1250;106742;-72
2023/03/26 10:38:18;;;;;;;1.80;1.10;;;;;;;12.84;62.25;98766.48;131184;1254;107276;-72
2023/03/26 10:41:33;;;;;;;2.40;1.40;;;;;;;12.89;62.07;98763.20;131023;1250;107336;-74
2023/03/26 10:44:54;;;;;;;1.90;1.40;;;;;;;12.81;61.91;98764.59;130985;1250;107476;-72
2023/03/26 10:48:26;;;;;;;2.00;1.30;;;;;;;12.87;62.18;98767.02;130959;1254;108047;-71
2023/03/26 10:51:52;;;;;;;2.20;1.70;;;;;;;12.97;61.31;98764.64;131192;1254;106799;-71
2023/03/26 10:55:10;;;;;;;3.50;2.00;;;;;;;12.92;61.19;98763.16;131015;1250;106643;-71
2023/03/26 10:58:23;;;;;;;2.30;1.90;;;;;;;12.74;61.94;98766.67;131482;1250;107538;-73
2023/03/26 11:01:32;;;;;;;;;;;;;;;12.65;62.21;98761.23;131077;1250;108051;-73
2023/03/26 11:04:47;;;;;;;3.60;2.10;;;;;;;12.58;61.61;98762.13;131367;1255;107520;-74
2023/03/26 11:08:01;;;;;;;3.10;2.00;;;;;;;12.54;61.09;98757.95;131372;1250;107990;-73
2023/03/26 11:11:18;;;;;;;3.10;2.20;;;;;;;12.39;61.09;98754.42;131215;1251;107406;-71
2023/03/26 11:14:30;;;;;;;3.00;2.10;;;;;;;12.37;60.89;98753.06;131314;1250;107515;-72
2023/03/26 11:17:46;;;;;;;2.50;1.80;;;;;;;12.27;61.00;98755.90;131192;1250;107231;-72
2023/03/26 11:20:57;;;;;;;2.40;1.80;;;;;;;12.11;60.85;98755.77;131079;1254;107217;-73
2023/03/26 11:24:21;;;;;;;2.90;2.10;;;;;;;11.99;61.10;98761.14;131290;1250;107393;-73
2023/03/26 11:27:41;;;;;;;2.70;2.00;;;;;;;11.85;60.43;98767.31;131220;1254;107611;-73
2023/03/26 11:30:53;;;;;;;2.50;1.90;;;;;;;11.72;61.76;98785.13;131248;1254;107431;-73
2023/03/26 11:34:05;;;;;;;3.00;2.30;;;;;;;11.68;61.96;98791.97;131267;1257;107373;-72
2023/03/26 11:37:18;;;;;;;3.20;1.90;;;;;;;11.72;62.71;98786.96;131225;1256;107358;-72
2023/03/26 11:40:30;;;;;;;2.50;1.60;;;;;;;11.80;62.27;98789.32;131150;1250;107433;-71
2023/03/26 11:43:37;;;;;;;2.30;1.50;;;;;;;11.70;62.67;98795.02;131160;1273;107328;-71
2023/03/26 11:46:46;;;;;;;3.30;1.70;;;;;;;11.55;63.14;98792.95;130980;1250;106538;-71
2023/03/26 11:49:55;;;;;;;3.10;1.90;;;;;;;11.43;63.71;98789.41;131081;1267;107503;-71
2023/03/26 11:53:12;;;;;;;2.70;2.20;;;;;;;11.48;63.87;98779.30;131187;1250;107471;-73
2023/03/26 11:56:25;;;;;;;4.40;2.80;;;;;;;11.56;63.78;98776.55;131190;1255;105801;-73
2023/03/26 11:59:37;;;;;;;3.40;2.30;;;;;;;11.71;63.98;98777.63;131169;1256;106762;-73
2023/03/26 12:02:43;;;;;;;2.90;2.20;;;;;;;11.87;63.21;98776.33;131158;1250;107586;-73
2023/03/26 12:05:52;;;;;;;6.10;2.40;;;;;;;11.97;63.05;98775.65;131110;1256;107769;-72
2023/03/26 12:08:57;;;;;;;4.60;2.00;;;;;;;12.09;63.10;98766.58;130807;1251;107527;-71
2023/03/26 12:12:05;;;;;;;2.90;2.10;;;;;;;12.25;62.54;98764.91;130879;1254;108169;-72
2023/03/26 12:15:17;;;;;;;4.00;2.40;;;;;;;12.45;61.70;98760.61;130915;1253;107510;-73
2023/03/26 12:18:27;;;;;;;3.50;2.20;;;;;;;12.69;61.35;98762.63;131027;1254;107558;-73
2023/03/26 12:21:45;;;;;;;3.30;2.20;;;;;;;12.77;61.78;98757.84;131128;1255;107467;-73
2023/03/26 12:25:04;;;;;;;4.30;3.10;;;;;;;12.67;61.50;98765.80;131217;1256;107550;-74
2023/03/26 12:28:19;;;;;;;2.90;2.20;;;;;;;12.26;62.01;98796.63;131237;1251;107260;-74
2023/03/26 12:31:25;;;;;;;2.30;1.50;;;;;;;11.43;64.51;98810.35;131354;1256;107255;-74
2023/03/26 12:34:34;;;;;;;2.40;1.80;;;;;;;10.76;65.74;98817.53;131193;1251;107363;-73
2023/03/26 12:37:42;;;;;;;2.50;2.10;;;;;;;10.32;66.99;98802.10;131107;1251;107488;-74
2023/03/26 12:40:48;;;;;;;3.80;2.90;;;;;;;10.19;66.52;98786.10;131172;1250;107337;-73
2023/03/26 12:43:54;;;;;;;3.00;2.10;;;;;;;10.34;67.09;98781.17;131204;1253;108478;-73
2023/03/26 12:47:18;;;;;;;4.00;2.60;;;;;;;10.63;67.29;98782.59;131165;1251;108553;-71
2023/03/26 12:50:29;;;;;;;3.30;2.10;;;;;;;11.05;67.26;98777.08;131077;1250;107489;-73
2023/03/26 12:53:57;;;;;;;2.50;2.10;;;;;;;11.39;67.30;98774.92;131241;1254;107279;-71
2023/03/26 12:57:19;;;;;;;2.60;2.10;;;;;;;11.50;67.26;98766.98;131155;1254;107564;-72
2023/03/26 13:00:34;;;;;;;3.20;2.10;;;;;;;11.55;67.11;98763.31;131919;1253;107405;-71
2023/03/26 13:04:03;;;;;;;3.90;2.40;;;;;;;11.53;66.66;98757.21;130962;1251;107440;-70
2023/03/26 13:07:23;;;;;;;4.10;2.40;;;;;;;11.48;66.64;98757.63;130928;1254;107521;-70
2023/03/26 13:10:55;;;;;;;14.10;5.80;;;;;;;11.48;66.58;98755.01;130994;1255;107495;-70
2023/03/26 13:14:14;;;;;;;4.80;2.60;;;;;;;11.48;65.14;98754.55;131090;1250;107374;-71
2023/03/26 13:17:29;;;;;;;3.00;2.60;;;;;;;11.32;65.12;98754.86;131055;1250;107237;-72
2023/03/26 13:20:48;;;;;;;2.70;2.40;;;;;;;11.25;64.88;98759.50;130983;1250;107444;-73
2023/03/26 13:24:01;;;;;;;5.70;2.60;;;;;;;11.36;65.39;98753.94;130992;1254;107562;-73
2023/03/26 13:27:21;;;;;;;5.40;2.80;;;;;;;11.44;65.53;98750.88;131054;1250;107525;-72
2023/03/26 13:30:36;;;;;;;3.80;3.00;;;;;;;11.48;65.95;98747.31;131351;1250;107384;-72
2023/03/26 13:33:50;;;;;;;3.70;2.50;;;;;;;11.56;65.27;98750.00;131275;1254;106647;-71
2023/03/26 13:37:11;;;;;;;4.90;2.80;;;;;;;11.69;65.18;98744.27;130875;1250;107507;-72
2023/03/26 13:40:26;;;;;;;2.90;2.50;;;;;;;11.78;64.58;98743.30;131006;1256;107476;-71
2023/03/26 13:43:42;;;;;;;2.50;2.20;;;;;;;11.79;64.88;98743.71;131017;1250;107367;-71
2023/03/26 13:46:53;;;;;;;2.80;2.30;;;;;;;11.83;63.91;98740.55;131104;1255;107666;-70
2023/03/26 13:50:03;;;;;;;2.70;2.00;;;;;;;11.89;63.85;98737.73;130903;1250;107359;-71
2023/03/26 13:53:14;;;;;;;3.20;2.40;;;;;;;12.01;63.29;98737.39;131139;1270;107219;-71
2023/03/26 13:56:25;;;;;;;2.30;2.10;;;;;;;12.05;63.32;98739.30;131139;1251;107015;-71
2023/03/26 13:59:35;;;;;;;5.50;4.20;;;;;;;12.06;61.77;98748.27;131114;1250;107571;-71
2023/03/26 14:02:43;;;;;;;5.90;4.60;;;;;;;11.85;62.45;98740.66;131016;1250;107397;-71
2023/03/26 14:05:54;;;;;;;5.70;3.20;;;;;;;11.70;63.08;98738.91;130883;1254;106792;-71
2023/03/26 14:09:03;;;;;;;3.60;2.60;;;;;;;11.74;63.93;98739.66;131027;1250;107438;-71
2023/03/26 14:12:21;;;;;;;3.40;2.40;;;;;;;11.83;64.13;98739.30;131428;1254;107424;-72
2023/03/26 14:15:30;;;;;;;3.50;2.60;;;;;;;11.86;63.47;98735.20;130969;1255;107457;-72
2023/03/26 14:18:44;;;;;;;16.50;10.70;;;;;;;11.85;63.78;98730.95;130915;1255;107433;-72
2023/03/26 14:22:13;;;;;;;6.00;3.80;;;;;;;11.81;63.60;98728.23;130927;1251;107586;-71
2023/03/26 14:25:35;;;;;;;9.60;7.10;;;;;;;11.70;63.77;98723.20;130897;1253;107394;-72
2023/03/26 14:29:09;;;;;;;8.20;5.90;;;;;;;11.55;63.00;98723.73;130952;1253;107154;-73
2023/03/26 14:32:37;;;;;;;4.10;3.10;;;;;;;11.30;63.31;98731.35;130853;1255;107583;-72
2023/03/26 14:35:50;;;;;;;8.60;6.70;;;;;;;11.27;64.07;98729.55;131394;1256;108028;-71
2023/03/26 14:39:02;;;;;;;;;;;;;;;11.24;63.75;98726.02;132295;1250;107618;-71
2023/03/26 14:42:18;;;;;;;39.40;27.60;;;;;;;11.24;63.85;98731.67;131488;1255;107484;-71
2023/03/26 14:45:55;;;;;;;12.20;8.10;;;;;;;11.25;63.50;98735.50;131116;1265;107667;-71
2023/03/26 14:49:29;;;;;;;5.40;3.60;;;;;;;11.22;63.52;98738.69;131205;1263;107458;-71
2023/03/26 14:53:04;;;;;;;5.50;3.40;;;;;;;11.20;63.52;98741.95;131381;1251;105677;-71
2023/03/26 14:56:39;;;;;;;4.80;3.60;;;;;;;11.26;63.88;98734.64;130979;1269;107532;-72
2023/03/26 15:00:14;;;;;;;6.70;5.80;;;;;;;11.36;63.21;98729.57;130965;1257;107155;-72
2023/03/26 15:03:53;;;;;;;13.50;8.40;;;;;;;11.40;63.38;98727.52;130838;1256;108671;-71
2023/03/26 15:07:33;;;;;;;63.90;35.70;;;;;;;11.46;62.53;98730.63;130837;1256;107467;-71
2023/03/26 15:11:03;;;;;;;70.60;36.90;;;;;;;11.52;63.03;98725.56;130953;1254;107389;-71
2023/03/26 15:14:40;;;;;;;49.60;26.10;;;;;;;11.61;61.73;98727.80;131044;1254;107472;-71